Terminal Aerodrome Forecast
Issued by NWS Atlanta, GA

Home | Current Version | Previous Version | Text Only | Print | Product List | Glossary On
Versions: 1 2 3 4 5 6 7 8 9 10 11 12 13
025
FTUS42 KFFC 082333
TAFCSG
TAF
KCSG 082333Z 0900/0924 32014G22KT P6SM BKN050
     FM090600 29010G16KT P6SM BKN070
     FM091100 29011G18KT P6SM SCT040 BKN050
     FM091800 29014G24KT P6SM BKN040=

USA.gov is the U.S. government's official web portal to all federal, state and local government web resources and services.